Latest Weather Observations for Centre Island

IDD60801

Issued at 2:11 pm CST Tuesday 10 December 2019 (issued every 10 minutes, with the page automatically refreshed every 10 minutes)

About weather observations | Map of weather stations | Latest weather observations for NT | Other Formats
Station Details ID: 014703 Name: CENTRE ISLAND Lat: -15.74 Lon: 136.82 Height: 12.2 m
Data from the previous 72 hours. | See also: Recent months at Centre Island
Date/Time
CST
Temp
°C
App
Temp
°C
Dew
Point
°C
Rel
Hum
%
Delta-T
°C
Wind Press
QNH
hPa
Press
MSL
hPa
Rain since
9am
mm
Dir  Spd
km/h
Gust
km/h
Spd
kts
Gust
kts
10/02:00pm 33.8 36.1 23.5 55 7.2 NNE 17 22 9 12 1008.7 1008.6 0.0
10/01:30pm 33.9 36.3 23.6 55 7.2 NNE 17 24 9 13 1009.2 1009.1 0.0
10/01:00pm 33.6 35.8 23.3 55 7.1 NNE 17 22 9 12 1009.6 1009.5 0.0
10/12:30pm 33.8 35.9 23.8 56 7.0 NNE 19 22 10 12 1010.0 1009.9 0.0
10/12:00pm 33.5 35.7 23.2 54 7.1 NNE 17 22 9 12 1010.3 1010.2 0.0
10/11:30am 34.4 37.0 24.0 54 7.3 NE 17 24 9 13 1010.7 1010.6 0.0
10/11:00am 33.3 35.7 23.6 56 6.7 NE 17 24 9 13 1010.9 1010.8 0.0
10/10:30am 33.5 35.8 24.4 59 6.4 NNE 20 30 11 16 1011.1 1011.0 0.0
10/10:00am 33.2 35.4 24.9 61 5.9 NNE 22 30 12 16 1011.2 1011.1 0.0
10/09:30am 31.9 35.6 24.5 65 5.2 NE 13 19 7 10 1011.4 1011.3 0.0
10/09:00am 31.8 36.0 25.4 69 4.5 ENE 13 19 7 10 1011.3 1011.2 0.0
10/08:30am 31.4 35.6 25.3 70 4.3 E 13 17 7 9 1011.2 1011.1 0.0
10/08:00am 31.1 36.5 25.2 71 4.2 ENE 6 11 3 6 1010.9 1010.8 0.0
10/07:30am 30.0 34.8 25.1 75 3.5 WSW 9 11 5 6 1010.4 1010.3 0.0
10/07:00am 29.1 34.5 25.1 79 2.8 W 6 7 3 4 1010.1 1010.0 0.0
10/06:30am 27.9 34.3 24.9 84 2.1 CALM 0 0 0 0 1009.6 1009.5 0.0
10/06:00am 27.4 33.5 25.0 87 1.7 WNW 2 6 1 3 1009.1 1009.0 0.0
10/05:30am 27.4 32.6 24.8 86 1.8 NW 6 7 3 4 1008.7 1008.6 0.0
10/05:00am 27.6 32.7 24.6 84 2.1 N 6 9 3 5 1008.4 1008.3 0.0
10/04:30am 27.6 32.5 24.6 84 2.1 NNW 7 9 4 5 1008.4 1008.3 0.0
10/04:00am 27.7 32.0 24.3 82 2.4 N 9 9 5 5 1008.3 1008.2 0.0
10/03:30am 28.0 32.4 24.4 81 2.5 N 9 11 5 6 1008.3 1008.2 0.0
10/03:00am 28.4 32.4 24.4 79 2.8 N 11 17 6 9 1008.1 1008.0 0.0
10/02:30am 28.7 32.4 24.5 78 2.9 N 13 17 7 9 1008.4 1008.3 0.0
10/02:00am 29.0 32.7 24.6 77 3.1 N 13 17 7 9 1008.5 1008.4 0.0
10/01:30am 29.4 32.4 24.7 76 3.3 NNE 17 20 9 11 1008.7 1008.6 0.0
10/01:00am 29.5 32.2 24.8 76 3.3 NNE 19 24 10 13 1008.7 1008.6 0.0
10/12:30am 29.7 32.1 24.6 74 3.6 NNE 20 26 11 14 1009.2 1009.1 0.0
10/12:00am 29.8 32.4 24.9 75 3.4 NNE 20 24 11 13 1009.4 1009.3 0.0
 
Date/Time
CST
Temp
°C
App
Temp
°C
Dew
Point
°C
Rel
Hum
%
Delta-T
°C
Wind Press
QNH
hPa
Press
MSL
hPa
Rain since
9am
mm
Dir  Spd
km/h
Gust
km/h
Spd
kts
Gust
kts
09/11:30pm 29.8 32.3 24.7 74 3.6 NE 20 24 11 13 1009.7 1009.6 0.0
09/11:00pm 29.7 32.4 24.8 75 3.4 NE 19 22 10 12 1010.1 1010.0 0.0
09/10:30pm 29.9 32.2 25.0 75 3.4 NE 22 28 12 15 1010.2 1010.1 0.0
09/10:00pm 30.0 31.5 24.4 72 3.9 NE 24 30 13 16 1009.8 1009.7 0.0
09/09:30pm 30.2 32.4 23.9 69 4.4 NE 19 24 10 13 1009.6 1009.5 0.0
09/09:00pm 30.2 33.2 23.4 67 4.7 NE 13 17 7 9 1010.0 1009.9 0.0
09/08:30pm 30.3 32.7 23.0 65 5.0 ENE 15 17 8 9 1010.3 1010.2 0.0
09/08:00pm 30.5 32.6 23.7 67 4.7 NE 19 24 10 13 1009.9 1009.8 0.0
09/07:30pm 30.6 33.2 24.0 68 4.6 NE 17 24 9 13 1009.4 1009.3 0.0
09/07:00pm 30.9 34.2 24.5 68 4.5 NE 15 19 8 10 1009.1 1009.0 0.0
09/06:30pm 31.5 34.5 23.3 61 5.7 NNE 13 17 7 9 1008.8 1008.7 0.0
09/06:00pm 32.5 35.6 22.9 57 6.6 N 11 15 6 8 1008.0 1007.9 0.0
09/05:30pm 33.4 36.1 22.8 53 7.3 N 13 17 7 9 1007.5 1007.4 0.0
09/05:00pm 33.5 36.4 23.2 54 7.1 NNW 13 19 7 10 1007.5 1007.4 0.0
09/04:30pm 33.7 36.7 23.4 55 7.2 N 13 20 7 11 1007.8 1007.7 0.0
09/04:00pm 34.4 37.3 23.1 51 7.8 N 13 22 7 12 1008.0 1007.9 0.0
09/03:30pm 35.2 38.1 23.2 49 8.4 NNE 13 20 7 11 1008.3 1008.2 0.0
09/03:00pm 34.8 37.3 23.2 51 8.1 NNW 15 22 8 12 1008.6 1008.5 0.0
09/02:30pm 34.8 37.5 23.5 52 7.9 NNW 15 24 8 13 1008.9 1008.8 0.0
09/02:00pm 34.3 36.6 24.5 56 6.9 NE 20 28 11 15 1009.4 1009.3 0.0
09/01:30pm 34.3 36.5 24.3 56 7.0 NNE 20 26 11 14 1009.7 1009.6 0.0
09/01:00pm 34.3 36.5 24.3 56 7.0 NE 20 28 11 15 1010.2 1010.1 0.0
09/12:30pm 34.4 37.2 25.2 58 6.5 NE 20 28 11 15 1010.7 1010.6 0.0
09/12:00pm 33.7 36.0 25.1 60 6.1 NE 22 30 12 16 1011.0 1010.9 0.0
09/11:30am 33.6 35.5 25.0 60 6.1 NE 24 30 13 16 1011.4 1011.3 0.0
09/11:00am 33.8 36.2 25.2 60 6.1 NE 22 30 12 16 1011.7 1011.6 0.0
09/10:30am 34.0 36.9 25.4 61 6.1 NE 20 26 11 14 1012.0 1011.9 0.0
09/10:00am 33.2 35.6 25.2 63 5.7 NE 22 30 12 16 1012.1 1012.0 0.0
09/09:30am 32.5 34.8 23.4 58 6.3 NNE 17 24 9 13 1012.3 1012.2 0.0
09/09:00am 32.6 35.8 24.9 64 5.4 N 17 22 9 12 1012.2 1012.1 0.0
09/08:30am 31.7 35.0 23.8 63 5.5 N 13 22 7 12 1012.0 1011.9 0.0
09/08:00am 31.4 34.3 24.5 67 4.8 NNW 17 22 9 12 1011.6 1011.5 0.0
09/07:30am 30.5 33.9 24.6 70 4.1 NNW 15 20 8 11 1011.2 1011.1 0.0
09/07:00am 30.0 33.9 24.9 74 3.6 NNW 13 20 7 11 1010.7 1010.6 0.0
09/06:30am 29.0 33.7 25.0 79 2.8 NNW 9 13 5 7 1010.5 1010.4 0.0
09/06:00am 28.6 33.0 25.0 81 2.5 N 11 17 6 9 1010.2 1010.1 0.0
09/05:30am 28.6 32.2 25.0 81 2.5 N 15 20 8 11 1009.7 1009.6 0.0
09/05:00am 28.6 32.7 25.2 82 2.4 N 13 17 7 9 1009.4 1009.3 0.0
09/04:30am 28.6 32.6 25.0 81 2.5 NNW 13 19 7 10 1008.9 1008.8 0.0
09/04:00am 28.8 32.0 25.0 80 2.7 N 17 24 9 13 1008.8 1008.7 0.0
09/03:30am 28.6 32.3 25.2 82 2.4 N 15 22 8 12 1008.4 1008.3 0.0
09/03:00am 28.8 32.5 25.2 81 2.5 N 15 22 8 12 1008.5 1008.4 0.0
09/02:30am 28.9 32.1 25.5 82 2.4 N 19 24 10 13 1008.5 1008.4 0.0
09/02:00am 29.0 32.1 25.4 81 2.5 N 19 24 10 13 1008.7 1008.6 0.0
09/01:30am 29.1 32.1 25.5 81 2.5 N 20 28 11 15 1009.0 1008.9 0.0
09/01:00am 29.5 32.1 25.5 79 2.8 NNE 22 26 12 14 1009.4 1009.3 0.0
09/12:30am 29.5 31.7 25.5 79 2.8 NNE 24 28 13 15 1009.9 1009.8 0.0
09/12:00am 29.5 32.0 25.3 78 3.0 NNE 22 28 12 15 1010.0 1009.9 0.0
 
Date/Time
CST
Temp
°C
App
Temp
°C
Dew
Point
°C
Rel
Hum
%
Delta-T
°C
Wind Press
QNH
hPa
Press
MSL
hPa
Rain since
9am
mm
Dir  Spd
km/h
Gust
km/h
Spd
kts
Gust
kts
08/11:30pm 29.5 32.5 25.5 79 2.8 NE 20 26 11 14 1010.2 1010.1 0.0
08/11:00pm 29.5 33.0 25.5 79 2.8 NE 17 24 9 13 1010.3 1010.2 0.0
08/10:30pm 29.4 32.6 24.9 77 3.2 ENE 17 20 9 11 1010.3 1010.2 0.0
08/10:00pm 29.6 32.2 24.9 76 3.3 ENE 20 24 11 13 1010.2 1010.1 0.0
08/09:30pm 29.7 32.2 24.8 75 3.4 NE 20 24 11 13 1009.8 1009.7 0.0
08/09:00pm 29.6 31.8 24.2 73 3.8 NE 20 26 11 14 1009.6 1009.5 0.0
08/08:30pm 29.9 31.7 24.3 72 3.9 NE 22 28 12 15 1009.6 1009.5 0.0
08/08:00pm 30.0 31.1 23.7 69 4.4 NE 24 30 13 16 1009.4 1009.3 0.0
08/07:30pm 29.8 31.5 24.7 74 3.6 NE 24 30 13 16 1009.2 1009.1 0.0
08/07:00pm 29.8 30.8 24.7 74 3.6 NE 28 32 15 17 1009.0 1008.9 0.0
08/06:30pm 30.1 32.1 25.2 75 3.5 NE 24 30 13 16 1008.8 1008.7 0.0
08/06:00pm 30.9 33.2 25.7 74 3.7 NE 24 33 13 18 1008.4 1008.3 0.0
08/05:30pm 31.4 32.3 25.3 70 4.3 NE 30 35 16 19 1008.1 1008.0 0.0
08/05:00pm 31.9 33.2 24.7 65 5.1 NE 26 32 14 17 1007.8 1007.7 0.0
08/04:30pm 32.4 34.2 25.5 67 4.9 NE 26 33 14 18 1008.0 1007.9 0.0
08/04:00pm 32.7 33.8 25.0 64 5.4 NE 28 32 15 17 1008.2 1008.1 0.0
08/03:30pm 33.2 34.9 24.7 61 6.0 NE 24 32 13 17 1008.4 1008.3 0.0
08/03:00pm 33.8 35.4 25.2 60 6.1 NE 26 33 14 18 1008.4 1008.3 0.0
08/02:30pm 33.5 35.0 24.4 59 6.4 NE 24 32 13 17 1008.7 1008.6 0.0
08/02:00pm 34.9 36.9 22.9 49 8.3 NNE 17 24 9 13 1008.7 1008.6 0.0
08/01:30pm 35.6 38.0 22.9 48 8.8 NNE 15 19 8 10 1009.0 1008.9 0.0
08/01:00pm 34.9 36.9 22.9 49 8.3 N 17 24 9 13 1009.2 1009.1 0.0
08/12:30pm 35.1 37.2 23.8 52 7.9 N 19 26 10 14 1009.6 1009.5 0.0
08/12:00pm 34.4 36.3 23.4 52 7.7 N 19 26 10 14 1009.8 1009.7 0.0
08/11:30am 34.9 36.9 23.6 52 7.9 NNW 19 28 10 15 1010.0 1009.9 0.0
08/11:00am 34.6 36.8 23.9 53 7.5 NNW 19 24 10 13 1010.2 1010.1 0.0
08/10:30am 34.3 36.3 23.9 54 7.3 N 20 28 11 15 1010.6 1010.5 0.0
08/10:00am 34.5 37.7 24.4 55 7.1 N 15 22 8 12 1011.1 1011.0 0.0
08/09:30am 33.8 37.0 24.4 58 6.6 NW 15 24 8 13 1011.1 1011.0 0.0
08/09:00am 32.2 34.9 24.8 65 5.2 NW 19 32 10 17 1011.0 1010.9 0.0
08/08:30am 31.6 33.7 24.7 67 4.9 WNW 22 33 12 18 1010.7 1010.6 0.0
08/08:00am 30.9 32.4 24.3 68 4.6 WNW 24 32 13 17 1010.5 1010.4 0.0
08/07:30am 30.4 32.7 24.5 70 4.1 NW 20 28 11 15 1010.3 1010.2 0.0
08/07:00am 29.8 33.3 24.9 75 3.4 NW 15 24 8 13 1010.1 1010.0 0.0
08/06:30am 28.7 32.5 24.7 79 2.8 NW 13 17 7 9 1009.8 1009.7 0.0
08/06:00am 28.0 31.6 24.4 81 2.5 NW 13 17 7 9 1009.3 1009.2 0.0
08/05:30am 28.1 31.8 24.5 81 2.5 NW 13 19 7 10 1009.0 1008.9 0.0
08/05:00am 28.2 32.1 24.8 82 2.4 NW 13 15 7 8 1008.8 1008.7 0.0
08/04:30am 28.0 32.6 24.8 83 2.2 NW 9 15 5 8 1008.7 1008.6 0.0
08/04:00am 28.2 33.1 25.2 84 2.1 NW 9 17 5 9 1008.5 1008.4 0.0
08/03:30am 28.3 32.7 25.1 83 2.2 NNW 11 19 6 10 1008.5 1008.4 0.0
08/03:00am 28.5 32.5 25.1 82 2.4 NNW 13 20 7 11 1008.3 1008.2 0.0
08/02:30am 28.6 31.7 25.4 83 2.3 NNW 19 24 10 13 1008.1 1008.0 0.0
08/02:00am 28.6 32.0 25.2 82 2.4 N 17 24 9 13 1008.2 1008.1 0.0
08/01:30am 28.7 31.4 25.1 81 2.5 N 20 26 11 14 1008.2 1008.1 0.0
08/01:00am 28.9 31.6 25.1 80 2.7 N 20 28 11 15 1008.4 1008.3 0.0
08/12:30am 29.1 31.9 25.3 80 2.7 N 20 28 11 15 1008.8 1008.7 0.0
08/12:00am 29.3 31.6 25.1 78 3.0 N 22 30 12 16 1009.0 1008.9 0.0
 
Date/Time
CST
Temp
°C
App
Temp
°C
Dew
Point
°C
Rel
Hum
%
Delta-T
°C
Wind Press
QNH
hPa
Press
MSL
hPa
Rain since
9am
mm
Dir  Spd
km/h
Gust
km/h
Spd
kts
Gust
kts
07/11:30pm 29.4 31.2 24.9 77 3.2 N 24 32 13 17 1009.3 1009.2 0.0
07/11:00pm 29.5 31.2 24.6 75 3.4 N 24 30 13 16 1009.5 1009.4 0.0
07/10:30pm 29.6 30.2 24.2 73 3.8 N 28 35 15 19 1009.3 1009.2 0.0
07/10:00pm 29.9 30.6 23.6 69 4.3 N 26 35 14 19 1008.9 1008.8 0.0
07/09:30pm 30.0 30.1 23.2 67 4.7 N 28 37 15 20 1008.9 1008.8 0.0
07/09:00pm 29.7 30.6 24.6 74 3.6 N 28 37 15 20 1008.8 1008.7 0.0
07/08:30pm 29.8 30.9 24.9 75 3.4 N 28 39 15 21 1008.5 1008.4 0.0
07/08:00pm 30.1 31.4 25.2 75 3.5 N 28 35 15 19 1008.5 1008.4 0.0
07/07:30pm 30.2 31.0 24.4 71 4.1 N 28 35 15 19 1008.1 1008.0 0.0
07/07:00pm 30.5 31.0 24.6 70 4.1 N 30 35 16 19 1007.8 1007.7 0.0
07/06:30pm 30.9 32.1 24.5 68 4.5 NNE 26 33 14 18 1007.7 1007.6 0.0
07/06:00pm 31.5 32.8 24.6 67 4.8 NNE 26 33 14 18 1007.4 1007.3 0.0
07/05:30pm 31.8 32.9 24.9 67 4.9 NNE 28 33 15 18 1007.2 1007.1 0.0
07/05:00pm 32.2 33.6 24.8 65 5.2 NNE 26 33 14 18 1007.1 1007.0 0.0
07/04:30pm 32.6 33.7 24.4 62 5.8 NE 26 33 14 18 1007.2 1007.1 0.0
07/04:00pm 33.8 35.0 23.8 56 7.0 NE 24 32 13 17 1007.5 1007.4 0.0
07/03:30pm 33.7 34.1 23.1 54 7.3 NE 26 32 14 17 1007.6 1007.5 0.0
07/03:00pm 34.2 35.4 24.5 57 6.8 NNE 26 32 14 17 1007.9 1007.8 0.0
07/02:30pm 36.1 35.4 18.7 36 11.5 NE 20 28 11 15 1008.0 1007.9 0.0

Other formats

Comma delimited format used in spreadsheet applications
http://www.bom.gov.au/fwo/IDD60801/IDD60801.94248.axf

JavaScript Object Notation format (JSON) in row-major order
http://www.bom.gov.au/fwo/IDD60801/IDD60801.94248.json

Data quality

Most of these data are generated automatically and are frequently updated. Quality checks on data are not normally performed. It is possible for incorrect values to appear. Refer to information at About Latest Weather Observations and please check the disclaimer before using these data.